sensor_id;sensor_type;location;lat;lon;timestamp;P1;durP1;ratioP1;P2;durP2;ratioP2
4732;SDS011;2380;53.668;10.008;2023-03-29T00:01:44;14.97;;;6.50;;
4732;SDS011;2380;53.668;10.008;2023-03-29T00:04:18;17.10;;;5.83;;
4732;SDS011;2380;53.668;10.008;2023-03-29T00:06:47;16.07;;;5.70;;
4732;SDS011;2380;53.668;10.008;2023-03-29T00:09:17;11.07;;;4.93;;
4732;SDS011;2380;53.668;10.008;2023-03-29T00:11:46;13.37;;;5.43;;
4732;SDS011;2380;53.668;10.008;2023-03-29T00:14:16;13.77;;;5.37;;
4732;SDS011;2380;53.668;10.008;2023-03-29T00:16:46;12.33;;;5.07;;
4732;SDS011;2380;53.668;10.008;2023-03-29T00:19:18;12.97;;;5.00;;
4732;SDS011;2380;53.668;10.008;2023-03-29T00:21:48;21.13;;;6.10;;
4732;SDS011;2380;53.668;10.008;2023-03-29T00:24:17;14.13;;;5.07;;
4732;SDS011;2380;53.668;10.008;2023-03-29T00:26:49;28.23;;;8.20;;
4732;SDS011;2380;53.668;10.008;2023-03-29T00:29:18;18.50;;;6.20;;
4732;SDS011;2380;53.668;10.008;2023-03-29T00:31:48;8.53;;;4.10;;
4732;SDS011;2380;53.668;10.008;2023-03-29T00:34:22;21.10;;;6.57;;
4732;SDS011;2380;53.668;10.008;2023-03-29T00:36:56;11.87;;;5.13;;
4732;SDS011;2380;53.668;10.008;2023-03-29T00:39:25;9.40;;;4.13;;
4732;SDS011;2380;53.668;10.008;2023-03-29T00:41:55;7.57;;;3.93;;
4732;SDS011;2380;53.668;10.008;2023-03-29T00:47:26;11.57;;;4.70;;
4732;SDS011;2380;53.668;10.008;2023-03-29T00:50:01;9.77;;;4.63;;
4732;SDS011;2380;53.668;10.008;2023-03-29T00:52:33;14.70;;;4.50;;
4732;SDS011;2380;53.668;10.008;2023-03-29T00:55:06;13.47;;;4.47;;
4732;SDS011;2380;53.668;10.008;2023-03-29T00:57:40;12.50;;;4.53;;
4732;SDS011;2380;53.668;10.008;2023-03-29T01:00:15;13.33;;;5.50;;
4732;SDS011;2380;53.668;10.008;2023-03-29T01:02:46;12.30;;;5.60;;
4732;SDS011;2380;53.668;10.008;2023-03-29T01:05:24;13.80;;;4.83;;
4732;SDS011;2380;53.668;10.008;2023-03-29T01:07:56;9.30;;;4.87;;
4732;SDS011;2380;53.668;10.008;2023-03-29T01:10:30;18.10;;;5.40;;
4732;SDS011;2380;53.668;10.008;2023-03-29T01:13:03;11.67;;;5.30;;
4732;SDS011;2380;53.668;10.008;2023-03-29T01:15:35;8.93;;;4.33;;
4732;SDS011;2380;53.668;10.008;2023-03-29T01:18:05;14.40;;;5.10;;
4732;SDS011;2380;53.668;10.008;2023-03-29T01:20:42;11.90;;;5.07;;
4732;SDS011;2380;53.668;10.008;2023-03-29T01:23:26;13.23;;;4.70;;
4732;SDS011;2380;53.668;10.008;2023-03-29T01:26:05;11.40;;;5.40;;
4732;SDS011;2380;53.668;10.008;2023-03-29T01:28:43;9.93;;;5.27;;
4732;SDS011;2380;53.668;10.008;2023-03-29T01:31:15;13.30;;;5.47;;
4732;SDS011;2380;53.668;10.008;2023-03-29T01:33:47;10.47;;;5.00;;
4732;SDS011;2380;53.668;10.008;2023-03-29T01:36:21;16.13;;;5.27;;
4732;SDS011;2380;53.668;10.008;2023-03-29T01:38:54;9.80;;;3.93;;
4732;SDS011;2380;53.668;10.008;2023-03-29T01:41:26;13.47;;;4.80;;
4732;SDS011;2380;53.668;10.008;2023-03-29T01:44:06;12.57;;;5.27;;
4732;SDS011;2380;53.668;10.008;2023-03-29T01:46:42;17.23;;;5.40;;
4732;SDS011;2380;53.668;10.008;2023-03-29T01:49:15;9.90;;;4.40;;
4732;SDS011;2380;53.668;10.008;2023-03-29T01:51:52;9.47;;;5.30;;
4732;SDS011;2380;53.668;10.008;2023-03-29T01:54:24;9.57;;;4.60;;
4732;SDS011;2380;53.668;10.008;2023-03-29T01:56:56;12.60;;;5.63;;
4732;SDS011;2380;53.668;10.008;2023-03-29T01:59:32;12.53;;;5.10;;
4732;SDS011;2380;53.668;10.008;2023-03-29T02:02:03;8.87;;;4.93;;
4732;SDS011;2380;53.668;10.008;2023-03-29T02:04:36;12.53;;;5.00;;
4732;SDS011;2380;53.668;10.008;2023-03-29T02:07:10;12.83;;;4.70;;
4732;SDS011;2380;53.668;10.008;2023-03-29T02:09:40;9.53;;;4.40;;
4732;SDS011;2380;53.668;10.008;2023-03-29T02:12:11;9.50;;;4.70;;
4732;SDS011;2380;53.668;10.008;2023-03-29T02:14:44;15.00;;;4.80;;
4732;SDS011;2380;53.668;10.008;2023-03-29T02:17:15;10.40;;;4.70;;
4732;SDS011;2380;53.668;10.008;2023-03-29T02:19:46;14.53;;;4.97;;
4732;SDS011;2380;53.668;10.008;2023-03-29T02:22:21;10.40;;;5.07;;
4732;SDS011;2380;53.668;10.008;2023-03-29T02:24:52;12.13;;;4.87;;
4732;SDS011;2380;53.668;10.008;2023-03-29T02:27:25;8.93;;;4.50;;
4732;SDS011;2380;53.668;10.008;2023-03-29T02:29:57;13.27;;;4.30;;
4732;SDS011;2380;53.668;10.008;2023-03-29T02:32:28;13.93;;;4.20;;
4732;SDS011;2380;53.668;10.008;2023-03-29T02:35:03;11.23;;;4.20;;
4732;SDS011;2380;53.668;10.008;2023-03-29T02:37:38;6.70;;;4.10;;
4732;SDS011;2380;53.668;10.008;2023-03-29T02:40:10;10.70;;;4.80;;
4732;SDS011;2380;53.668;10.008;2023-03-29T02:42:41;9.73;;;4.10;;
4732;SDS011;2380;53.668;10.008;2023-03-29T02:45:15;10.50;;;4.73;;
4732;SDS011;2380;53.668;10.008;2023-03-29T02:47:45;10.00;;;4.30;;
4732;SDS011;2380;53.668;10.008;2023-03-29T02:50:20;11.90;;;4.30;;
4732;SDS011;2380;53.668;10.008;2023-03-29T02:52:50;11.50;;;4.50;;
4732;SDS011;2380;53.668;10.008;2023-03-29T02:55:22;8.43;;;4.17;;
4732;SDS011;2380;53.668;10.008;2023-03-29T02:57:57;10.40;;;3.87;;
4732;SDS011;2380;53.668;10.008;2023-03-29T03:00:31;11.80;;;3.87;;
4732;SDS011;2380;53.668;10.008;2023-03-29T03:03:01;8.13;;;3.87;;
4732;SDS011;2380;53.668;10.008;2023-03-29T03:05:31;8.80;;;4.00;;
4732;SDS011;2380;53.668;10.008;2023-03-29T03:08:01;13.00;;;4.07;;
4732;SDS011;2380;53.668;10.008;2023-03-29T03:10:32;10.23;;;3.90;;
4732;SDS011;2380;53.668;10.008;2023-03-29T03:13:02;9.00;;;3.87;;
4732;SDS011;2380;53.668;10.008;2023-03-29T03:15:35;7.73;;;3.67;;
4732;SDS011;2380;53.668;10.008;2023-03-29T03:18:08;7.60;;;3.53;;
4732;SDS011;2380;53.668;10.008;2023-03-29T03:20:38;11.30;;;4.23;;
4732;SDS011;2380;53.668;10.008;2023-03-29T03:23:12;11.33;;;3.80;;
4732;SDS011;2380;53.668;10.008;2023-03-29T03:25:43;10.50;;;3.27;;
4732;SDS011;2380;53.668;10.008;2023-03-29T03:28:14;7.70;;;3.10;;
4732;SDS011;2380;53.668;10.008;2023-03-29T03:30:46;8.40;;;4.00;;
4732;SDS011;2380;53.668;10.008;2023-03-29T03:33:16;10.63;;;4.10;;
4732;SDS011;2380;53.668;10.008;2023-03-29T03:35:45;6.70;;;2.73;;
4732;SDS011;2380;53.668;10.008;2023-03-29T03:38:15;9.03;;;3.80;;
4732;SDS011;2380;53.668;10.008;2023-03-29T03:40:51;10.43;;;3.20;;
4732;SDS011;2380;53.668;10.008;2023-03-29T03:43:22;11.83;;;3.80;;
4732;SDS011;2380;53.668;10.008;2023-03-29T03:45:54;6.70;;;3.10;;
4732;SDS011;2380;53.668;10.008;2023-03-29T03:48:24;7.23;;;3.23;;
4732;SDS011;2380;53.668;10.008;2023-03-29T03:50:55;7.80;;;3.30;;
4732;SDS011;2380;53.668;10.008;2023-03-29T03:53:26;7.40;;;3.50;;
4732;SDS011;2380;53.668;10.008;2023-03-29T03:55:56;6.20;;;2.97;;
4732;SDS011;2380;53.668;10.008;2023-03-29T03:58:27;16.70;;;3.90;;
4732;SDS011;2380;53.668;10.008;2023-03-29T04:00:59;10.33;;;3.30;;
4732;SDS011;2380;53.668;10.008;2023-03-29T04:03:29;10.50;;;3.27;;
4732;SDS011;2380;53.668;10.008;2023-03-29T04:06:00;11.00;;;3.30;;
4732;SDS011;2380;53.668;10.008;2023-03-29T04:08:30;8.50;;;3.37;;
4732;SDS011;2380;53.668;10.008;2023-03-29T04:10:59;9.37;;;3.40;;
4732;SDS011;2380;53.668;10.008;2023-03-29T04:13:30;11.57;;;3.20;;
4732;SDS011;2380;53.668;10.008;2023-03-29T04:16:02;8.03;;;3.20;;
4732;SDS011;2380;53.668;10.008;2023-03-29T04:18:32;8.13;;;3.33;;
4732;SDS011;2380;53.668;10.008;2023-03-29T04:21:02;9.13;;;4.00;;
4732;SDS011;2380;53.668;10.008;2023-03-29T04:23:32;12.63;;;4.20;;
4732;SDS011;2380;53.668;10.008;2023-03-29T04:26:02;12.77;;;4.40;;
4732;SDS011;2380;53.668;10.008;2023-03-29T04:28:33;6.00;;;3.40;;
4732;SDS011;2380;53.668;10.008;2023-03-29T04:31:06;10.00;;;3.60;;
4732;SDS011;2380;53.668;10.008;2023-03-29T04:33:38;15.00;;;4.33;;
4732;SDS011;2380;53.668;10.008;2023-03-29T04:36:08;12.53;;;4.20;;
4732;SDS011;2380;53.668;10.008;2023-03-29T04:38:39;12.30;;;4.40;;
4732;SDS011;2380;53.668;10.008;2023-03-29T04:41:13;10.10;;;3.70;;
4732;SDS011;2380;53.668;10.008;2023-03-29T04:43:42;14.37;;;3.77;;
4732;SDS011;2380;53.668;10.008;2023-03-29T04:46:15;11.53;;;4.10;;
4732;SDS011;2380;53.668;10.008;2023-03-29T04:48:45;14.63;;;4.40;;
4732;SDS011;2380;53.668;10.008;2023-03-29T04:51:15;15.97;;;4.97;;
4732;SDS011;2380;53.668;10.008;2023-03-29T04:53:45;13.10;;;4.50;;
4732;SDS011;2380;53.668;10.008;2023-03-29T04:56:15;8.23;;;4.10;;
4732;SDS011;2380;53.668;10.008;2023-03-29T04:58:44;10.30;;;4.83;;
4732;SDS011;2380;53.668;10.008;2023-03-29T05:01:17;10.87;;;4.60;;
4732;SDS011;2380;53.668;10.008;2023-03-29T05:03:46;8.43;;;4.30;;
4732;SDS011;2380;53.668;10.008;2023-03-29T05:06:16;10.50;;;5.00;;
4732;SDS011;2380;53.668;10.008;2023-03-29T05:08:46;16.00;;;5.57;;
4732;SDS011;2380;53.668;10.008;2023-03-29T05:11:16;10.17;;;4.70;;
4732;SDS011;2380;53.668;10.008;2023-03-29T05:13:46;9.80;;;5.70;;
4732;SDS011;2380;53.668;10.008;2023-03-29T05:16:18;14.80;;;6.23;;
4732;SDS011;2380;53.668;10.008;2023-03-29T05:18:48;13.10;;;5.93;;
4732;SDS011;2380;53.668;10.008;2023-03-29T05:21:18;10.10;;;5.20;;
4732;SDS011;2380;53.668;10.008;2023-03-29T05:23:47;10.90;;;5.50;;
4732;SDS011;2380;53.668;10.008;2023-03-29T05:26:17;16.60;;;6.20;;
4732;SDS011;2380;53.668;10.008;2023-03-29T05:28:47;11.73;;;5.70;;
4732;SDS011;2380;53.668;10.008;2023-03-29T05:31:20;11.20;;;5.93;;
4732;SDS011;2380;53.668;10.008;2023-03-29T05:33:50;9.00;;;5.07;;
4732;SDS011;2380;53.668;10.008;2023-03-29T05:36:19;17.60;;;5.67;;
4732;SDS011;2380;53.668;10.008;2023-03-29T05:38:49;10.50;;;5.17;;
4732;SDS011;2380;53.668;10.008;2023-03-29T05:41:19;12.77;;;4.93;;
4732;SDS011;2380;53.668;10.008;2023-03-29T05:43:49;13.10;;;6.00;;
4732;SDS011;2380;53.668;10.008;2023-03-29T05:46:21;9.90;;;4.73;;
4732;SDS011;2380;53.668;10.008;2023-03-29T05:48:50;11.77;;;5.37;;
4732;SDS011;2380;53.668;10.008;2023-03-29T05:51:20;10.10;;;4.87;;
4732;SDS011;2380;53.668;10.008;2023-03-29T05:53:50;10.50;;;5.30;;
4732;SDS011;2380;53.668;10.008;2023-03-29T05:56:19;9.70;;;4.63;;
4732;SDS011;2380;53.668;10.008;2023-03-29T05:58:51;11.83;;;4.80;;
4732;SDS011;2380;53.668;10.008;2023-03-29T06:01:24;16.03;;;4.90;;
4732;SDS011;2380;53.668;10.008;2023-03-29T06:03:54;10.10;;;5.30;;
4732;SDS011;2380;53.668;10.008;2023-03-29T06:06:24;12.97;;;5.20;;
4732;SDS011;2380;53.668;10.008;2023-03-29T06:08:53;14.50;;;5.77;;
4732;SDS011;2380;53.668;10.008;2023-03-29T06:11:23;10.87;;;5.13;;
4732;SDS011;2380;53.668;10.008;2023-03-29T06:13:53;15.07;;;6.00;;
4732;SDS011;2380;53.668;10.008;2023-03-29T06:16:27;12.47;;;6.40;;
4732;SDS011;2380;53.668;10.008;2023-03-29T06:18:57;13.20;;;5.77;;
4732;SDS011;2380;53.668;10.008;2023-03-29T06:21:27;14.77;;;5.57;;
4732;SDS011;2380;53.668;10.008;2023-03-29T06:23:57;10.93;;;5.87;;
4732;SDS011;2380;53.668;10.008;2023-03-29T06:26:26;12.87;;;5.90;;
4732;SDS011;2380;53.668;10.008;2023-03-29T06:28:56;14.53;;;6.10;;
4732;SDS011;2380;53.668;10.008;2023-03-29T06:31:28;16.50;;;7.13;;
4732;SDS011;2380;53.668;10.008;2023-03-29T06:33:58;14.23;;;6.33;;
4732;SDS011;2380;53.668;10.008;2023-03-29T06:36:28;16.73;;;7.20;;
4732;SDS011;2380;53.668;10.008;2023-03-29T06:38:59;21.20;;;8.30;;
4732;SDS011;2380;53.668;10.008;2023-03-29T06:41:29;18.10;;;8.27;;
4732;SDS011;2380;53.668;10.008;2023-03-29T06:43:59;14.20;;;8.30;;
4732;SDS011;2380;53.668;10.008;2023-03-29T06:46:32;17.57;;;8.13;;
4732;SDS011;2380;53.668;10.008;2023-03-29T06:49:02;16.83;;;8.47;;
4732;SDS011;2380;53.668;10.008;2023-03-29T06:51:32;17.53;;;8.10;;
4732;SDS011;2380;53.668;10.008;2023-03-29T06:54:02;17.10;;;8.40;;
4732;SDS011;2380;53.668;10.008;2023-03-29T06:56:32;16.43;;;8.53;;
4732;SDS011;2380;53.668;10.008;2023-03-29T06:59:02;17.20;;;8.60;;
4732;SDS011;2380;53.668;10.008;2023-03-29T07:01:34;13.50;;;7.90;;
4732;SDS011;2380;53.668;10.008;2023-03-29T07:04:04;17.80;;;8.30;;
4732;SDS011;2380;53.668;10.008;2023-03-29T07:06:34;19.63;;;8.93;;
4732;SDS011;2380;53.668;10.008;2023-03-29T07:09:05;18.90;;;8.20;;
4732;SDS011;2380;53.668;10.008;2023-03-29T07:11:35;15.40;;;8.67;;
4732;SDS011;2380;53.668;10.008;2023-03-29T07:14:05;13.10;;;7.67;;
4732;SDS011;2380;53.668;10.008;2023-03-29T07:16:38;12.67;;;7.67;;
4732;SDS011;2380;53.668;10.008;2023-03-29T07:19:08;14.77;;;8.13;;
4732;SDS011;2380;53.668;10.008;2023-03-29T07:21:37;13.53;;;7.90;;
4732;SDS011;2380;53.668;10.008;2023-03-29T07:24:07;17.27;;;8.30;;
4732;SDS011;2380;53.668;10.008;2023-03-29T07:26:36;13.63;;;8.10;;
4732;SDS011;2380;53.668;10.008;2023-03-29T07:29:25;16.33;;;8.30;;
4732;SDS011;2380;53.668;10.008;2023-03-29T07:31:58;13.23;;;8.33;;
4732;SDS011;2380;53.668;10.008;2023-03-29T07:34:27;16.13;;;7.90;;
4732;SDS011;2380;53.668;10.008;2023-03-29T07:36:58;17.50;;;8.07;;
4732;SDS011;2380;53.668;10.008;2023-03-29T07:39:27;14.63;;;7.40;;
4732;SDS011;2380;53.668;10.008;2023-03-29T07:41:57;14.40;;;7.80;;
4732;SDS011;2380;53.668;10.008;2023-03-29T07:44:26;14.87;;;7.20;;
4732;SDS011;2380;53.668;10.008;2023-03-29T07:47:02;15.47;;;5.33;;
4732;SDS011;2380;53.668;10.008;2023-03-29T07:49:32;10.60;;;6.10;;
4732;SDS011;2380;53.668;10.008;2023-03-29T07:52:02;13.37;;;6.40;;
4732;SDS011;2380;53.668;10.008;2023-03-29T07:54:32;8.30;;;4.37;;
4732;SDS011;2380;53.668;10.008;2023-03-29T07:57:01;11.20;;;5.57;;
4732;SDS011;2380;53.668;10.008;2023-03-29T07:59:31;14.10;;;5.20;;
4732;SDS011;2380;53.668;10.008;2023-03-29T08:02:03;10.30;;;5.60;;
4732;SDS011;2380;53.668;10.008;2023-03-29T08:04:33;11.73;;;5.40;;
4732;SDS011;2380;53.668;10.008;2023-03-29T08:07:03;8.53;;;4.90;;
4732;SDS011;2380;53.668;10.008;2023-03-29T08:09:33;11.50;;;4.53;;
4732;SDS011;2380;53.668;10.008;2023-03-29T08:12:02;5.87;;;3.10;;
4732;SDS011;2380;53.668;10.008;2023-03-29T08:14:33;14.30;;;5.40;;
4732;SDS011;2380;53.668;10.008;2023-03-29T08:17:05;10.83;;;5.20;;
4732;SDS011;2380;53.668;10.008;2023-03-29T08:19:35;10.27;;;5.53;;
4732;SDS011;2380;53.668;10.008;2023-03-29T08:22:04;9.60;;;4.70;;
4732;SDS011;2380;53.668;10.008;2023-03-29T08:24:34;11.23;;;5.80;;
4732;SDS011;2380;53.668;10.008;2023-03-29T08:27:04;10.10;;;4.30;;
4732;SDS011;2380;53.668;10.008;2023-03-29T08:29:34;12.20;;;5.27;;
4732;SDS011;2380;53.668;10.008;2023-03-29T08:32:06;7.47;;;3.83;;
4732;SDS011;2380;53.668;10.008;2023-03-29T08:34:36;11.90;;;5.30;;
4732;SDS011;2380;53.668;10.008;2023-03-29T08:37:05;7.77;;;4.70;;
4732;SDS011;2380;53.668;10.008;2023-03-29T08:39:35;7.53;;;4.50;;
4732;SDS011;2380;53.668;10.008;2023-03-29T08:42:11;7.30;;;4.87;;
4732;SDS011;2380;53.668;10.008;2023-03-29T08:44:52;8.27;;;4.67;;
4732;SDS011;2380;53.668;10.008;2023-03-29T08:47:32;9.83;;;5.20;;
4732;SDS011;2380;53.668;10.008;2023-03-29T08:50:05;11.57;;;5.27;;
4732;SDS011;2380;53.668;10.008;2023-03-29T08:52:36;10.73;;;5.50;;
4732;SDS011;2380;53.668;10.008;2023-03-29T08:55:09;9.80;;;4.70;;
4732;SDS011;2380;53.668;10.008;2023-03-29T08:57:48;9.23;;;4.40;;
4732;SDS011;2380;53.668;10.008;2023-03-29T09:00:19;11.10;;;5.30;;
4732;SDS011;2380;53.668;10.008;2023-03-29T09:02:57;12.23;;;3.93;;
4732;SDS011;2380;53.668;10.008;2023-03-29T09:05:28;32.13;;;10.53;;
4732;SDS011;2380;53.668;10.008;2023-03-29T09:08:01;14.03;;;5.57;;
4732;SDS011;2380;53.668;10.008;2023-03-29T09:10:33;9.80;;;4.30;;
4732;SDS011;2380;53.668;10.008;2023-03-29T09:13:09;15.70;;;5.03;;
4732;SDS011;2380;53.668;10.008;2023-03-29T09:15:47;10.13;;;4.50;;
4732;SDS011;2380;53.668;10.008;2023-03-29T09:18:25;19.40;;;7.70;;
4732;SDS011;2380;53.668;10.008;2023-03-29T09:21:00;8.93;;;4.83;;
4732;SDS011;2380;53.668;10.008;2023-03-29T09:23:44;18.33;;;6.23;;
4732;SDS011;2380;53.668;10.008;2023-03-29T09:26:30;11.90;;;4.70;;
4732;SDS011;2380;53.668;10.008;2023-03-29T09:29:05;10.90;;;4.77;;
4732;SDS011;2380;53.668;10.008;2023-03-29T09:31:44;8.83;;;3.93;;
4732;SDS011;2380;53.668;10.008;2023-03-29T09:34:20;14.30;;;5.90;;
4732;SDS011;2380;53.668;10.008;2023-03-29T09:36:52;6.30;;;4.07;;
4732;SDS011;2380;53.668;10.008;2023-03-29T09:39:25;12.83;;;4.90;;
4732;SDS011;2380;53.668;10.008;2023-03-29T09:41:56;7.00;;;4.27;;
4732;SDS011;2380;53.668;10.008;2023-03-29T09:44:30;15.93;;;5.50;;
4732;SDS011;2380;53.668;10.008;2023-03-29T09:47:02;25.07;;;8.27;;
4732;SDS011;2380;53.668;10.008;2023-03-29T09:49:38;8.70;;;3.37;;
4732;SDS011;2380;53.668;10.008;2023-03-29T09:52:11;13.03;;;5.13;;
4732;SDS011;2380;53.668;10.008;2023-03-29T09:54:42;8.93;;;4.10;;
4732;SDS011;2380;53.668;10.008;2023-03-29T09:57:12;8.30;;;4.23;;
4732;SDS011;2380;53.668;10.008;2023-03-29T09:59:44;18.93;;;7.70;;
4732;SDS011;2380;53.668;10.008;2023-03-29T10:02:17;34.30;;;9.90;;
4732;SDS011;2380;53.668;10.008;2023-03-29T10:04:54;10.30;;;4.80;;
4732;SDS011;2380;53.668;10.008;2023-03-29T10:07:32;9.20;;;5.77;;
4732;SDS011;2380;53.668;10.008;2023-03-29T10:10:06;11.40;;;5.63;;
4732;SDS011;2380;53.668;10.008;2023-03-29T10:12:36;8.73;;;4.07;;
4732;SDS011;2380;53.668;10.008;2023-03-29T10:15:06;8.87;;;5.20;;
4732;SDS011;2380;53.668;10.008;2023-03-29T10:17:58;18.33;;;6.10;;
4732;SDS011;2380;53.668;10.008;2023-03-29T10:20:33;12.03;;;6.40;;
4732;SDS011;2380;53.668;10.008;2023-03-29T10:23:04;10.93;;;4.80;;
4732;SDS011;2380;53.668;10.008;2023-03-29T10:25:36;17.93;;;6.10;;
4732;SDS011;2380;53.668;10.008;2023-03-29T10:28:10;18.97;;;6.90;;
4732;SDS011;2380;53.668;10.008;2023-03-29T10:30:41;9.83;;;5.23;;
4732;SDS011;2380;53.668;10.008;2023-03-29T10:33:14;13.47;;;6.50;;
4732;SDS011;2380;53.668;10.008;2023-03-29T10:35:47;10.77;;;4.87;;
4732;SDS011;2380;53.668;10.008;2023-03-29T10:38:18;8.43;;;5.03;;
4732;SDS011;2380;53.668;10.008;2023-03-29T10:40:49;10.10;;;4.77;;
4732;SDS011;2380;53.668;10.008;2023-03-29T10:43:20;12.50;;;5.60;;
4732;SDS011;2380;53.668;10.008;2023-03-29T10:45:54;10.40;;;4.90;;
4732;SDS011;2380;53.668;10.008;2023-03-29T10:48:27;13.10;;;5.20;;
4732;SDS011;2380;53.668;10.008;2023-03-29T10:51:01;13.30;;;6.37;;
4732;SDS011;2380;53.668;10.008;2023-03-29T10:53:33;9.60;;;6.23;;
4732;SDS011;2380;53.668;10.008;2023-03-29T10:56:08;8.70;;;3.63;;
4732;SDS011;2380;53.668;10.008;2023-03-29T10:58:46;10.40;;;5.53;;
4732;SDS011;2380;53.668;10.008;2023-03-29T11:01:28;9.70;;;4.77;;
4732;SDS011;2380;53.668;10.008;2023-03-29T11:04:06;13.97;;;6.67;;
4732;SDS011;2380;53.668;10.008;2023-03-29T11:06:42;13.23;;;6.93;;
4732;SDS011;2380;53.668;10.008;2023-03-29T11:09:16;26.90;;;7.60;;
4732;SDS011;2380;53.668;10.008;2023-03-29T11:11:52;12.20;;;5.70;;
4732;SDS011;2380;53.668;10.008;2023-03-29T11:14:43;9.37;;;4.43;;
4732;SDS011;2380;53.668;10.008;2023-03-29T11:17:22;11.90;;;6.57;;
4732;SDS011;2380;53.668;10.008;2023-03-29T11:20:00;18.17;;;7.97;;
4732;SDS011;2380;53.668;10.008;2023-03-29T11:22:43;32.13;;;11.80;;
4732;SDS011;2380;53.668;10.008;2023-03-29T11:25:22;23.07;;;8.80;;
4732;SDS011;2380;53.668;10.008;2023-03-29T11:27:58;13.50;;;7.00;;
4732;SDS011;2380;53.668;10.008;2023-03-29T11:30:31;16.27;;;7.03;;
4732;SDS011;2380;53.668;10.008;2023-03-29T11:33:07;15.63;;;7.47;;
4732;SDS011;2380;53.668;10.008;2023-03-29T11:35:51;14.70;;;6.93;;
4732;SDS011;2380;53.668;10.008;2023-03-29T11:38:28;15.10;;;7.10;;
4732;SDS011;2380;53.668;10.008;2023-03-29T11:41:02;14.60;;;5.70;;
4732;SDS011;2380;53.668;10.008;2023-03-29T11:43:36;14.97;;;7.23;;
4732;SDS011;2380;53.668;10.008;2023-03-29T11:46:10;9.97;;;4.20;;
4732;SDS011;2380;53.668;10.008;2023-03-29T11:48:43;16.23;;;4.90;;
4732;SDS011;2380;53.668;10.008;2023-03-29T11:51:17;27.37;;;7.43;;
4732;SDS011;2380;53.668;10.008;2023-03-29T11:53:55;14.23;;;5.80;;
4732;SDS011;2380;53.668;10.008;2023-03-29T11:56:30;11.17;;;5.07;;
4732;SDS011;2380;53.668;10.008;2023-03-29T11:59:04;16.17;;;7.67;;
4732;SDS011;2380;53.668;10.008;2023-03-29T12:01:37;16.53;;;7.30;;
4732;SDS011;2380;53.668;10.008;2023-03-29T12:04:09;16.00;;;8.30;;
4732;SDS011;2380;53.668;10.008;2023-03-29T12:06:44;13.23;;;7.10;;
4732;SDS011;2380;53.668;10.008;2023-03-29T12:09:24;17.60;;;8.20;;
4732;SDS011;2380;53.668;10.008;2023-03-29T12:11:59;16.63;;;7.50;;
4732;SDS011;2380;53.668;10.008;2023-03-29T12:14:37;24.03;;;9.07;;
4732;SDS011;2380;53.668;10.008;2023-03-29T12:17:14;17.90;;;7.30;;
4732;SDS011;2380;53.668;10.008;2023-03-29T12:19:47;16.77;;;8.53;;
4732;SDS011;2380;53.668;10.008;2023-03-29T12:22:30;13.80;;;8.30;;
4732;SDS011;2380;53.668;10.008;2023-03-29T12:25:03;15.33;;;9.53;;
4732;SDS011;2380;53.668;10.008;2023-03-29T12:27:36;15.67;;;8.57;;
4732;SDS011;2380;53.668;10.008;2023-03-29T12:30:22;16.63;;;8.60;;
4732;SDS011;2380;53.668;10.008;2023-03-29T12:36:05;14.80;;;8.13;;
4732;SDS011;2380;53.668;10.008;2023-03-29T12:38:41;14.43;;;8.30;;
4732;SDS011;2380;53.668;10.008;2023-03-29T12:41:17;17.13;;;8.83;;
4732;SDS011;2380;53.668;10.008;2023-03-29T12:43:48;15.83;;;8.90;;
4732;SDS011;2380;53.668;10.008;2023-03-29T12:46:19;16.27;;;9.37;;
4732;SDS011;2380;53.668;10.008;2023-03-29T12:48:53;16.27;;;7.77;;
4732;SDS011;2380;53.668;10.008;2023-03-29T12:51:26;18.40;;;10.03;;
4732;SDS011;2380;53.668;10.008;2023-03-29T12:54:00;15.60;;;8.20;;
4732;SDS011;2380;53.668;10.008;2023-03-29T12:56:38;17.20;;;9.30;;
4732;SDS011;2380;53.668;10.008;2023-03-29T12:59:16;16.13;;;9.43;;
4732;SDS011;2380;53.668;10.008;2023-03-29T13:01:56;14.43;;;9.50;;
4732;SDS011;2380;53.668;10.008;2023-03-29T13:04:35;15.33;;;9.60;;
4732;SDS011;2380;53.668;10.008;2023-03-29T13:07:11;17.30;;;9.60;;
4732;SDS011;2380;53.668;10.008;2023-03-29T13:09:47;16.53;;;9.23;;
4732;SDS011;2380;53.668;10.008;2023-03-29T13:12:22;15.10;;;9.57;;
4732;SDS011;2380;53.668;10.008;2023-03-29T13:14:56;17.43;;;9.90;;
4732;SDS011;2380;53.668;10.008;2023-03-29T13:17:30;15.67;;;9.40;;
4732;SDS011;2380;53.668;10.008;2023-03-29T13:23:03;14.20;;;7.20;;
4732;SDS011;2380;53.668;10.008;2023-03-29T13:25:48;14.70;;;8.27;;
4732;SDS011;2380;53.668;10.008;2023-03-29T13:28:31;13.80;;;7.97;;
4732;SDS011;2380;53.668;10.008;2023-03-29T13:31:05;13.50;;;8.70;;
4732;SDS011;2380;53.668;10.008;2023-03-29T13:33:43;12.67;;;7.90;;
4732;SDS011;2380;53.668;10.008;2023-03-29T13:36:21;12.10;;;7.57;;
4732;SDS011;2380;53.668;10.008;2023-03-29T13:39:12;16.50;;;9.30;;
4732;SDS011;2380;53.668;10.008;2023-03-29T13:41:45;13.60;;;8.30;;
4732;SDS011;2380;53.668;10.008;2023-03-29T13:44:22;18.37;;;9.20;;
4732;SDS011;2380;53.668;10.008;2023-03-29T13:47:10;14.53;;;8.10;;
4732;SDS011;2380;53.668;10.008;2023-03-29T13:49:45;18.90;;;9.37;;
4732;SDS011;2380;53.668;10.008;2023-03-29T13:52:20;13.87;;;7.90;;
4732;SDS011;2380;53.668;10.008;2023-03-29T13:54:52;14.67;;;7.93;;
4732;SDS011;2380;53.668;10.008;2023-03-29T13:57:29;15.30;;;8.50;;
4732;SDS011;2380;53.668;10.008;2023-03-29T14:00:04;17.73;;;10.30;;
4732;SDS011;2380;53.668;10.008;2023-03-29T14:02:42;15.93;;;7.93;;
4732;SDS011;2380;53.668;10.008;2023-03-29T14:05:18;28.27;;;11.57;;
4732;SDS011;2380;53.668;10.008;2023-03-29T14:07:53;14.63;;;7.77;;
4732;SDS011;2380;53.668;10.008;2023-03-29T14:10:24;15.90;;;9.40;;
4732;SDS011;2380;53.668;10.008;2023-03-29T14:12:55;17.97;;;9.03;;
4732;SDS011;2380;53.668;10.008;2023-03-29T14:15:38;13.00;;;7.50;;
4732;SDS011;2380;53.668;10.008;2023-03-29T14:18:14;13.33;;;8.80;;
4732;SDS011;2380;53.668;10.008;2023-03-29T14:20:45;13.17;;;8.90;;
4732;SDS011;2380;53.668;10.008;2023-03-29T14:23:16;13.93;;;9.13;;
4732;SDS011;2380;53.668;10.008;2023-03-29T14:25:49;12.00;;;7.53;;
4732;SDS011;2380;53.668;10.008;2023-03-29T14:28:19;14.53;;;8.30;;
4732;SDS011;2380;53.668;10.008;2023-03-29T14:30:52;12.60;;;8.40;;
4732;SDS011;2380;53.668;10.008;2023-03-29T14:33:23;10.13;;;5.80;;
4732;SDS011;2380;53.668;10.008;2023-03-29T14:35:54;12.93;;;8.30;;
4732;SDS011;2380;53.668;10.008;2023-03-29T14:38:25;16.80;;;8.97;;
4732;SDS011;2380;53.668;10.008;2023-03-29T14:40:57;15.10;;;8.57;;
4732;SDS011;2380;53.668;10.008;2023-03-29T14:43:27;12.73;;;8.43;;
4732;SDS011;2380;53.668;10.008;2023-03-29T14:46:01;13.53;;;7.70;;
4732;SDS011;2380;53.668;10.008;2023-03-29T14:48:31;10.20;;;5.73;;
4732;SDS011;2380;53.668;10.008;2023-03-29T14:51:02;12.87;;;8.13;;
4732;SDS011;2380;53.668;10.008;2023-03-29T14:53:32;15.30;;;8.83;;
4732;SDS011;2380;53.668;10.008;2023-03-29T14:56:04;13.77;;;6.90;;
4732;SDS011;2380;53.668;10.008;2023-03-29T14:58:37;14.13;;;8.97;;
4732;SDS011;2380;53.668;10.008;2023-03-29T15:01:14;14.57;;;9.73;;
4732;SDS011;2380;53.668;10.008;2023-03-29T15:03:48;15.00;;;9.03;;
4732;SDS011;2380;53.668;10.008;2023-03-29T15:06:20;17.80;;;10.23;;
4732;SDS011;2380;53.668;10.008;2023-03-29T15:08:51;16.57;;;9.33;;
4732;SDS011;2380;53.668;10.008;2023-03-29T15:11:31;13.00;;;8.87;;
4732;SDS011;2380;53.668;10.008;2023-03-29T15:14:02;16.37;;;9.47;;
4732;SDS011;2380;53.668;10.008;2023-03-29T15:16:38;15.27;;;9.50;;
4732;SDS011;2380;53.668;10.008;2023-03-29T15:19:09;16.50;;;10.37;;
4732;SDS011;2380;53.668;10.008;2023-03-29T15:21:41;13.50;;;8.30;;
4732;SDS011;2380;53.668;10.008;2023-03-29T15:24:18;16.63;;;9.70;;
4732;SDS011;2380;53.668;10.008;2023-03-29T15:26:59;14.00;;;8.90;;
4732;SDS011;2380;53.668;10.008;2023-03-29T15:29:34;13.40;;;8.83;;
4732;SDS011;2380;53.668;10.008;2023-03-29T15:32:18;20.63;;;9.53;;
4732;SDS011;2380;53.668;10.008;2023-03-29T15:34:56;14.90;;;9.20;;